sensor_id;sensor_type;location;lat;lon;timestamp;P1;durP1;ratioP1;P2;durP2;ratioP2
43994;SDS011;51687;52.160;5.298;2023-12-20T00:02:10;16.70;;;2.53;;
43994;SDS011;51687;52.160;5.298;2023-12-20T00:04:37;25.98;;;3.10;;
43994;SDS011;51687;52.160;5.298;2023-12-20T00:07:04;13.05;;;2.53;;
43994;SDS011;51687;52.160;5.298;2023-12-20T00:09:31;14.45;;;2.72;;
43994;SDS011;51687;52.160;5.298;2023-12-20T00:11:58;14.45;;;3.65;;
43994;SDS011;51687;52.160;5.298;2023-12-20T00:14:24;18.63;;;3.40;;
43994;SDS011;51687;52.160;5.298;2023-12-20T00:16:51;11.50;;;2.65;;
43994;SDS011;51687;52.160;5.298;2023-12-20T00:19:18;17.08;;;3.22;;
43994;SDS011;51687;52.160;5.298;2023-12-20T00:21:45;13.35;;;2.88;;
43994;SDS011;51687;52.160;5.298;2023-12-20T00:24:11;8.80;;;2.83;;
43994;SDS011;51687;52.160;5.298;2023-12-20T00:26:38;16.80;;;3.50;;
43994;SDS011;51687;52.160;5.298;2023-12-20T00:29:05;13.05;;;3.05;;
43994;SDS011;51687;52.160;5.298;2023-12-20T00:31:32;18.63;;;3.60;;
43994;SDS011;51687;52.160;5.298;2023-12-20T00:33:58;17.52;;;2.88;;
43994;SDS011;51687;52.160;5.298;2023-12-20T00:36:25;19.67;;;3.30;;
43994;SDS011;51687;52.160;5.298;2023-12-20T00:38:52;14.85;;;3.30;;
43994;SDS011;51687;52.160;5.298;2023-12-20T00:41:19;11.30;;;3.30;;
43994;SDS011;51687;52.160;5.298;2023-12-20T00:43:46;21.45;;;3.58;;
43994;SDS011;51687;52.160;5.298;2023-12-20T00:46:13;12.70;;;3.13;;
43994;SDS011;51687;52.160;5.298;2023-12-20T00:48:40;14.10;;;3.15;;
43994;SDS011;51687;52.160;5.298;2023-12-20T00:51:08;15.50;;;2.67;;
43994;SDS011;51687;52.160;5.298;2023-12-20T00:53:35;17.27;;;2.95;;
43994;SDS011;51687;52.160;5.298;2023-12-20T00:56:02;9.85;;;2.85;;
43994;SDS011;51687;52.160;5.298;2023-12-20T00:58:29;16.80;;;2.90;;
43994;SDS011;51687;52.160;5.298;2023-12-20T01:00:56;12.80;;;2.90;;
43994;SDS011;51687;52.160;5.298;2023-12-20T01:03:24;17.70;;;2.90;;
43994;SDS011;51687;52.160;5.298;2023-12-20T01:05:51;15.20;;;2.53;;
43994;SDS011;51687;52.160;5.298;2023-12-20T01:08:18;21.55;;;3.50;;
43994;SDS011;51687;52.160;5.298;2023-12-20T01:10:44;15.13;;;3.35;;
43994;SDS011;51687;52.160;5.298;2023-12-20T01:13:13;17.88;;;2.80;;
43994;SDS011;51687;52.160;5.298;2023-12-20T01:15:40;14.43;;;3.20;;
43994;SDS011;51687;52.160;5.298;2023-12-20T01:18:06;18.42;;;2.53;;
43994;SDS011;51687;52.160;5.298;2023-12-20T01:20:33;17.85;;;3.22;;
43994;SDS011;51687;52.160;5.298;2023-12-20T01:23:00;18.63;;;2.67;;
43994;SDS011;51687;52.160;5.298;2023-12-20T01:25:27;18.08;;;3.30;;
43994;SDS011;51687;52.160;5.298;2023-12-20T01:27:54;17.77;;;3.50;;
43994;SDS011;51687;52.160;5.298;2023-12-20T01:30:20;16.92;;;3.28;;
43994;SDS011;51687;52.160;5.298;2023-12-20T01:32:47;20.48;;;3.55;;
43994;SDS011;51687;52.160;5.298;2023-12-20T01:35:15;23.27;;;3.47;;
43994;SDS011;51687;52.160;5.298;2023-12-20T01:37:42;19.10;;;3.47;;
43994;SDS011;51687;52.160;5.298;2023-12-20T01:40:09;20.88;;;3.22;;
43994;SDS011;51687;52.160;5.298;2023-12-20T01:42:36;21.50;;;3.60;;
43994;SDS011;51687;52.160;5.298;2023-12-20T01:45:03;16.25;;;2.67;;
43994;SDS011;51687;52.160;5.298;2023-12-20T01:47:31;22.00;;;3.30;;
43994;SDS011;51687;52.160;5.298;2023-12-20T01:49:58;20.25;;;3.38;;
43994;SDS011;51687;52.160;5.298;2023-12-20T01:52:25;18.73;;;3.40;;
43994;SDS011;51687;52.160;5.298;2023-12-20T01:54:53;20.70;;;4.10;;
43994;SDS011;51687;52.160;5.298;2023-12-20T01:57:27;26.05;;;4.85;;
43994;SDS011;51687;52.160;5.298;2023-12-20T01:59:54;19.65;;;3.08;;
43994;SDS011;51687;52.160;5.298;2023-12-20T02:02:21;14.10;;;3.70;;
43994;SDS011;51687;52.160;5.298;2023-12-20T02:04:48;20.65;;;4.00;;
43994;SDS011;51687;52.160;5.298;2023-12-20T02:07:17;23.30;;;3.90;;
43994;SDS011;51687;52.160;5.298;2023-12-20T02:09:45;20.25;;;3.47;;
43994;SDS011;51687;52.160;5.298;2023-12-20T02:12:12;12.63;;;3.15;;
43994;SDS011;51687;52.160;5.298;2023-12-20T02:14:39;12.80;;;3.08;;
43994;SDS011;51687;52.160;5.298;2023-12-20T02:17:06;21.35;;;4.63;;
43994;SDS011;51687;52.160;5.298;2023-12-20T02:19:33;23.27;;;3.67;;
43994;SDS011;51687;52.160;5.298;2023-12-20T02:22:09;15.18;;;3.85;;
43994;SDS011;51687;52.160;5.298;2023-12-20T02:24:37;17.40;;;3.80;;
43994;SDS011;51687;52.160;5.298;2023-12-20T02:27:07;14.43;;;3.08;;
43994;SDS011;51687;52.160;5.298;2023-12-20T02:29:34;22.92;;;3.85;;
43994;SDS011;51687;52.160;5.298;2023-12-20T02:32:01;22.45;;;4.45;;
43994;SDS011;51687;52.160;5.298;2023-12-20T02:34:29;31.92;;;4.32;;
43994;SDS011;51687;52.160;5.298;2023-12-20T02:36:56;31.15;;;4.65;;
43994;SDS011;51687;52.160;5.298;2023-12-20T02:39:23;18.27;;;4.47;;
43994;SDS011;51687;52.160;5.298;2023-12-20T02:41:50;16.92;;;3.58;;
43994;SDS011;51687;52.160;5.298;2023-12-20T02:44:17;31.80;;;5.15;;
43994;SDS011;51687;52.160;5.298;2023-12-20T02:46:44;25.98;;;5.15;;
43994;SDS011;51687;52.160;5.298;2023-12-20T02:49:11;22.92;;;4.32;;
43994;SDS011;51687;52.160;5.298;2023-12-20T02:51:38;24.10;;;5.28;;
43994;SDS011;51687;52.160;5.298;2023-12-20T02:54:05;20.20;;;4.38;;
43994;SDS011;51687;52.160;5.298;2023-12-20T02:56:32;17.58;;;4.32;;
43994;SDS011;51687;52.160;5.298;2023-12-20T02:58:59;24.08;;;3.95;;
43994;SDS011;51687;52.160;5.298;2023-12-20T03:01:26;18.17;;;4.60;;
43994;SDS011;51687;52.160;5.298;2023-12-20T03:03:54;20.40;;;4.33;;
43994;SDS011;51687;52.160;5.298;2023-12-20T03:06:21;20.40;;;4.45;;
43994;SDS011;51687;52.160;5.298;2023-12-20T03:08:48;22.38;;;4.65;;
43994;SDS011;51687;52.160;5.298;2023-12-20T03:11:14;22.35;;;4.05;;
43994;SDS011;51687;52.160;5.298;2023-12-20T03:13:41;27.42;;;4.82;;
43994;SDS011;51687;52.160;5.298;2023-12-20T03:16:11;29.38;;;4.57;;
43994;SDS011;51687;52.160;5.298;2023-12-20T03:18:39;19.10;;;3.95;;
43994;SDS011;51687;52.160;5.298;2023-12-20T03:21:06;21.75;;;5.50;;
43994;SDS011;51687;52.160;5.298;2023-12-20T03:23:32;20.40;;;4.30;;
43994;SDS011;51687;52.160;5.298;2023-12-20T03:26:00;17.60;;;4.25;;
43994;SDS011;51687;52.160;5.298;2023-12-20T03:28:27;20.80;;;4.75;;
43994;SDS011;51687;52.160;5.298;2023-12-20T03:30:54;20.83;;;4.55;;
43994;SDS011;51687;52.160;5.298;2023-12-20T03:33:21;25.08;;;5.03;;
43994;SDS011;51687;52.160;5.298;2023-12-20T03:35:48;25.80;;;5.20;;
43994;SDS011;51687;52.160;5.298;2023-12-20T03:38:15;22.08;;;4.53;;
43994;SDS011;51687;52.160;5.298;2023-12-20T03:40:42;26.42;;;4.43;;
43994;SDS011;51687;52.160;5.298;2023-12-20T03:43:08;30.08;;;5.47;;
43994;SDS011;51687;52.160;5.298;2023-12-20T03:45:35;34.00;;;4.90;;
43994;SDS011;51687;52.160;5.298;2023-12-20T03:48:02;26.73;;;5.13;;
43994;SDS011;51687;52.160;5.298;2023-12-20T03:50:29;25.20;;;4.40;;
43994;SDS011;51687;52.160;5.298;2023-12-20T03:52:56;37.30;;;6.10;;
43994;SDS011;51687;52.160;5.298;2023-12-20T03:55:23;24.42;;;4.80;;
43994;SDS011;51687;52.160;5.298;2023-12-20T03:57:50;25.25;;;5.25;;
43994;SDS011;51687;52.160;5.298;2023-12-20T04:00:16;26.77;;;4.63;;
43994;SDS011;51687;52.160;5.298;2023-12-20T04:02:43;29.15;;;4.78;;
43994;SDS011;51687;52.160;5.298;2023-12-20T04:05:10;22.23;;;4.63;;
43994;SDS011;51687;52.160;5.298;2023-12-20T04:07:37;19.75;;;3.88;;
43994;SDS011;51687;52.160;5.298;2023-12-20T04:10:05;20.58;;;4.53;;
43994;SDS011;51687;52.160;5.298;2023-12-20T04:12:32;25.65;;;4.30;;
43994;SDS011;51687;52.160;5.298;2023-12-20T04:14:59;20.88;;;4.70;;
43994;SDS011;51687;52.160;5.298;2023-12-20T04:17:26;29.00;;;4.75;;
43994;SDS011;51687;52.160;5.298;2023-12-20T04:19:53;23.67;;;4.30;;
43994;SDS011;51687;52.160;5.298;2023-12-20T04:22:20;22.80;;;4.82;;
43994;SDS011;51687;52.160;5.298;2023-12-20T04:24:47;35.42;;;4.60;;
43994;SDS011;51687;52.160;5.298;2023-12-20T04:27:13;20.10;;;4.28;;
43994;SDS011;51687;52.160;5.298;2023-12-20T04:29:41;24.45;;;4.50;;
43994;SDS011;51687;52.160;5.298;2023-12-20T04:32:08;23.42;;;3.97;;
43994;SDS011;51687;52.160;5.298;2023-12-20T04:34:35;28.02;;;4.38;;
43994;SDS011;51687;52.160;5.298;2023-12-20T04:37:02;31.63;;;5.53;;
43994;SDS011;51687;52.160;5.298;2023-12-20T04:39:29;18.40;;;4.43;;
43994;SDS011;51687;52.160;5.298;2023-12-20T04:41:56;16.58;;;3.70;;
43994;SDS011;51687;52.160;5.298;2023-12-20T04:44:24;29.33;;;4.57;;
43994;SDS011;51687;52.160;5.298;2023-12-20T04:46:51;27.25;;;4.40;;
43994;SDS011;51687;52.160;5.298;2023-12-20T04:49:18;18.20;;;4.13;;
43994;SDS011;51687;52.160;5.298;2023-12-20T04:51:45;25.75;;;4.60;;
43994;SDS011;51687;52.160;5.298;2023-12-20T04:54:12;23.25;;;4.25;;
43994;SDS011;51687;52.160;5.298;2023-12-20T04:56:40;21.92;;;5.30;;
43994;SDS011;51687;52.160;5.298;2023-12-20T04:59:07;15.70;;;3.58;;
43994;SDS011;51687;52.160;5.298;2023-12-20T05:01:34;21.08;;;3.80;;
43994;SDS011;51687;52.160;5.298;2023-12-20T05:04:01;20.30;;;4.88;;
43994;SDS011;51687;52.160;5.298;2023-12-20T05:06:27;23.70;;;5.40;;
43994;SDS011;51687;52.160;5.298;2023-12-20T05:08:54;24.45;;;5.43;;
43994;SDS011;51687;52.160;5.298;2023-12-20T05:11:21;29.42;;;5.32;;
43994;SDS011;51687;52.160;5.298;2023-12-20T05:13:48;20.67;;;4.72;;
43994;SDS011;51687;52.160;5.298;2023-12-20T05:16:16;27.45;;;4.53;;
43994;SDS011;51687;52.160;5.298;2023-12-20T05:18:45;20.05;;;4.70;;
43994;SDS011;51687;52.160;5.298;2023-12-20T05:21:13;14.77;;;4.20;;
43994;SDS011;51687;52.160;5.298;2023-12-20T05:23:40;23.70;;;4.47;;
43994;SDS011;51687;52.160;5.298;2023-12-20T05:26:06;22.08;;;4.40;;
43994;SDS011;51687;52.160;5.298;2023-12-20T05:28:36;19.13;;;4.75;;
43994;SDS011;51687;52.160;5.298;2023-12-20T05:31:03;22.23;;;4.65;;
43994;SDS011;51687;52.160;5.298;2023-12-20T05:33:30;15.95;;;3.90;;
43994;SDS011;51687;52.160;5.298;2023-12-20T05:35:57;26.77;;;5.00;;
43994;SDS011;51687;52.160;5.298;2023-12-20T05:38:24;28.17;;;4.55;;
43994;SDS011;51687;52.160;5.298;2023-12-20T05:40:51;17.02;;;5.35;;
43994;SDS011;51687;52.160;5.298;2023-12-20T05:43:18;20.98;;;4.40;;
43994;SDS011;51687;52.160;5.298;2023-12-20T05:45:46;19.93;;;3.97;;
43994;SDS011;51687;52.160;5.298;2023-12-20T05:48:13;19.70;;;4.75;;
43994;SDS011;51687;52.160;5.298;2023-12-20T05:50:39;19.95;;;4.60;;
43994;SDS011;51687;52.160;5.298;2023-12-20T05:53:06;20.30;;;4.03;;
43994;SDS011;51687;52.160;5.298;2023-12-20T05:55:33;19.10;;;4.47;;
43994;SDS011;51687;52.160;5.298;2023-12-20T05:58:00;18.27;;;3.90;;
43994;SDS011;51687;52.160;5.298;2023-12-20T06:00:27;19.80;;;4.50;;
43994;SDS011;51687;52.160;5.298;2023-12-20T06:02:54;25.90;;;5.45;;
43994;SDS011;51687;52.160;5.298;2023-12-20T06:05:21;24.98;;;5.40;;
43994;SDS011;51687;52.160;5.298;2023-12-20T06:07:48;22.58;;;4.40;;
43994;SDS011;51687;52.160;5.298;2023-12-20T06:12:43;18.50;;;4.53;;
43994;SDS011;51687;52.160;5.298;2023-12-20T06:15:11;16.35;;;4.28;;
43994;SDS011;51687;52.160;5.298;2023-12-20T06:17:38;24.52;;;4.70;;
43994;SDS011;51687;52.160;5.298;2023-12-20T06:20:04;20.30;;;4.10;;
43994;SDS011;51687;52.160;5.298;2023-12-20T06:22:34;26.58;;;5.05;;
43994;SDS011;51687;52.160;5.298;2023-12-20T06:25:02;17.30;;;4.33;;
43994;SDS011;51687;52.160;5.298;2023-12-20T06:27:29;28.42;;;5.13;;
43994;SDS011;51687;52.160;5.298;2023-12-20T06:29:56;18.85;;;3.92;;
43994;SDS011;51687;52.160;5.298;2023-12-20T06:32:23;20.13;;;4.85;;
43994;SDS011;51687;52.160;5.298;2023-12-20T06:34:50;28.15;;;4.60;;
43994;SDS011;51687;52.160;5.298;2023-12-20T06:37:17;18.48;;;4.82;;
43994;SDS011;51687;52.160;5.298;2023-12-20T06:39:44;18.65;;;4.82;;
43994;SDS011;51687;52.160;5.298;2023-12-20T06:42:11;22.88;;;4.20;;
43994;SDS011;51687;52.160;5.298;2023-12-20T06:44:38;24.60;;;5.45;;
43994;SDS011;51687;52.160;5.298;2023-12-20T06:47:05;26.38;;;5.00;;
43994;SDS011;51687;52.160;5.298;2023-12-20T06:49:33;26.50;;;5.03;;
43994;SDS011;51687;52.160;5.298;2023-12-20T06:51:59;16.40;;;4.30;;
43994;SDS011;51687;52.160;5.298;2023-12-20T06:54:26;20.40;;;5.85;;
43994;SDS011;51687;52.160;5.298;2023-12-20T06:56:53;21.60;;;5.43;;
43994;SDS011;51687;52.160;5.298;2023-12-20T06:59:20;21.08;;;4.30;;
43994;SDS011;51687;52.160;5.298;2023-12-20T07:01:49;19.63;;;4.22;;
43994;SDS011;51687;52.160;5.298;2023-12-20T07:04:16;19.08;;;3.83;;
43994;SDS011;51687;52.160;5.298;2023-12-20T07:06:48;19.75;;;4.10;;
43994;SDS011;51687;52.160;5.298;2023-12-20T07:09:18;29.75;;;4.72;;
43994;SDS011;51687;52.160;5.298;2023-12-20T07:11:45;15.10;;;4.28;;
43994;SDS011;51687;52.160;5.298;2023-12-20T07:14:11;24.30;;;5.43;;
43994;SDS011;51687;52.160;5.298;2023-12-20T07:16:38;25.55;;;5.50;;
43994;SDS011;51687;52.160;5.298;2023-12-20T07:19:05;20.13;;;4.78;;
43994;SDS011;51687;52.160;5.298;2023-12-20T07:21:32;29.17;;;4.38;;
43994;SDS011;51687;52.160;5.298;2023-12-20T07:23:59;20.27;;;4.07;;
43994;SDS011;51687;52.160;5.298;2023-12-20T07:26:25;23.45;;;4.43;;
43994;SDS011;51687;52.160;5.298;2023-12-20T07:28:52;30.05;;;5.30;;
43994;SDS011;51687;52.160;5.298;2023-12-20T07:31:19;16.50;;;4.10;;
43994;SDS011;51687;52.160;5.298;2023-12-20T07:33:46;30.67;;;5.97;;
43994;SDS011;51687;52.160;5.298;2023-12-20T07:36:13;24.85;;;4.65;;
43994;SDS011;51687;52.160;5.298;2023-12-20T07:38:40;27.27;;;4.70;;
43994;SDS011;51687;52.160;5.298;2023-12-20T07:41:09;18.60;;;4.25;;
43994;SDS011;51687;52.160;5.298;2023-12-20T07:43:37;18.85;;;5.30;;
43994;SDS011;51687;52.160;5.298;2023-12-20T07:46:04;23.00;;;5.20;;
43994;SDS011;51687;52.160;5.298;2023-12-20T07:48:33;16.85;;;3.83;;
43994;SDS011;51687;52.160;5.298;2023-12-20T07:51:01;24.67;;;4.63;;
43994;SDS011;51687;52.160;5.298;2023-12-20T07:53:28;22.58;;;4.80;;
43994;SDS011;51687;52.160;5.298;2023-12-20T07:55:55;28.02;;;4.28;;
43994;SDS011;51687;52.160;5.298;2023-12-20T07:58:22;20.92;;;4.82;;
43994;SDS011;51687;52.160;5.298;2023-12-20T08:01:01;23.60;;;4.97;;
43994;SDS011;51687;52.160;5.298;2023-12-20T08:03:28;27.23;;;4.63;;
43994;SDS011;51687;52.160;5.298;2023-12-20T08:05:54;26.35;;;4.93;;
43994;SDS011;51687;52.160;5.298;2023-12-20T08:08:22;21.50;;;5.23;;
43994;SDS011;51687;52.160;5.298;2023-12-20T08:10:49;21.83;;;4.65;;
43994;SDS011;51687;52.160;5.298;2023-12-20T08:13:16;28.60;;;5.03;;
43994;SDS011;51687;52.160;5.298;2023-12-20T08:15:43;25.75;;;5.20;;
43994;SDS011;51687;52.160;5.298;2023-12-20T08:18:09;19.67;;;5.28;;
43994;SDS011;51687;52.160;5.298;2023-12-20T08:20:36;19.83;;;4.63;;
43994;SDS011;51687;52.160;5.298;2023-12-20T08:23:06;27.58;;;5.47;;
43994;SDS011;51687;52.160;5.298;2023-12-20T08:25:33;21.58;;;4.32;;
43994;SDS011;51687;52.160;5.298;2023-12-20T08:28:00;23.50;;;4.25;;
43994;SDS011;51687;52.160;5.298;2023-12-20T08:30:29;25.50;;;5.60;;
43994;SDS011;51687;52.160;5.298;2023-12-20T08:32:59;24.70;;;5.18;;
43994;SDS011;51687;52.160;5.298;2023-12-20T08:35:26;21.88;;;5.00;;
43994;SDS011;51687;52.160;5.298;2023-12-20T08:37:53;27.10;;;5.57;;
43994;SDS011;51687;52.160;5.298;2023-12-20T08:40:20;23.63;;;5.57;;
43994;SDS011;51687;52.160;5.298;2023-12-20T08:42:46;30.45;;;5.20;;
43994;SDS011;51687;52.160;5.298;2023-12-20T08:45:13;22.30;;;4.90;;
43994;SDS011;51687;52.160;5.298;2023-12-20T08:47:40;17.95;;;4.45;;
43994;SDS011;51687;52.160;5.298;2023-12-20T08:50:07;29.85;;;5.82;;
43994;SDS011;51687;52.160;5.298;2023-12-20T08:52:34;33.65;;;5.55;;
43994;SDS011;51687;52.160;5.298;2023-12-20T08:55:01;29.67;;;6.65;;
43994;SDS011;51687;52.160;5.298;2023-12-20T08:57:28;29.17;;;4.93;;
43994;SDS011;51687;52.160;5.298;2023-12-20T08:59:55;28.13;;;4.45;;
43994;SDS011;51687;52.160;5.298;2023-12-20T09:02:22;24.52;;;5.07;;
43994;SDS011;51687;52.160;5.298;2023-12-20T09:04:48;22.30;;;4.60;;
43994;SDS011;51687;52.160;5.298;2023-12-20T09:07:22;20.42;;;4.15;;
43994;SDS011;51687;52.160;5.298;2023-12-20T09:09:50;21.88;;;4.63;;
43994;SDS011;51687;52.160;5.298;2023-12-20T09:12:18;23.45;;;4.90;;
43994;SDS011;51687;52.160;5.298;2023-12-20T09:14:46;27.08;;;4.82;;
43994;SDS011;51687;52.160;5.298;2023-12-20T09:17:13;17.15;;;4.47;;
43994;SDS011;51687;52.160;5.298;2023-12-20T09:19:41;22.10;;;4.53;;
43994;SDS011;51687;52.160;5.298;2023-12-20T09:22:08;24.83;;;4.88;;
43994;SDS011;51687;52.160;5.298;2023-12-20T09:24:35;19.70;;;5.32;;
43994;SDS011;51687;52.160;5.298;2023-12-20T09:27:01;29.73;;;6.20;;
43994;SDS011;51687;52.160;5.298;2023-12-20T09:29:28;19.63;;;4.32;;
43994;SDS011;51687;52.160;5.298;2023-12-20T09:31:55;25.20;;;4.45;;
43994;SDS011;51687;52.160;5.298;2023-12-20T09:34:23;26.10;;;4.87;;
43994;SDS011;51687;52.160;5.298;2023-12-20T09:36:52;27.27;;;4.60;;
43994;SDS011;51687;52.160;5.298;2023-12-20T09:39:19;22.95;;;4.40;;
43994;SDS011;51687;52.160;5.298;2023-12-20T09:41:49;19.63;;;3.85;;
43994;SDS011;51687;52.160;5.298;2023-12-20T09:44:28;19.30;;;4.13;;
43994;SDS011;51687;52.160;5.298;2023-12-20T09:46:57;27.40;;;4.75;;
43994;SDS011;51687;52.160;5.298;2023-12-20T09:49:24;24.20;;;5.47;;
43994;SDS011;51687;52.160;5.298;2023-12-20T09:51:53;18.02;;;3.70;;
43994;SDS011;51687;52.160;5.298;2023-12-20T09:54:20;25.27;;;4.55;;
43994;SDS011;51687;52.160;5.298;2023-12-20T09:56:48;21.17;;;4.65;;
43994;SDS011;51687;52.160;5.298;2023-12-20T09:59:16;22.35;;;3.85;;
43994;SDS011;51687;52.160;5.298;2023-12-20T10:01:43;22.80;;;5.95;;
43994;SDS011;51687;52.160;5.298;2023-12-20T10:04:10;20.02;;;3.45;;
43994;SDS011;51687;52.160;5.298;2023-12-20T10:06:56;19.70;;;4.82;;
43994;SDS011;51687;52.160;5.298;2023-12-20T10:09:24;19.08;;;4.28;;
43994;SDS011;51687;52.160;5.298;2023-12-20T10:11:53;25.27;;;5.22;;
43994;SDS011;51687;52.160;5.298;2023-12-20T10:14:21;24.38;;;3.92;;
43994;SDS011;51687;52.160;5.298;2023-12-20T10:16:49;23.55;;;4.38;;
43994;SDS011;51687;52.160;5.298;2023-12-20T10:19:16;21.33;;;3.47;;
43994;SDS011;51687;52.160;5.298;2023-12-20T10:21:46;16.73;;;4.07;;
43994;SDS011;51687;52.160;5.298;2023-12-20T10:24:19;29.65;;;4.78;;
43994;SDS011;51687;52.160;5.298;2023-12-20T10:26:46;21.42;;;4.78;;
43994;SDS011;51687;52.160;5.298;2023-12-20T10:29:14;13.63;;;4.30;;
43994;SDS011;51687;52.160;5.298;2023-12-20T10:31:40;23.75;;;4.97;;
43994;SDS011;51687;52.160;5.298;2023-12-20T10:34:09;27.85;;;4.20;;
43994;SDS011;51687;52.160;5.298;2023-12-20T10:36:37;21.30;;;4.88;;
43994;SDS011;51687;52.160;5.298;2023-12-20T10:39:04;24.92;;;3.72;;
43994;SDS011;51687;52.160;5.298;2023-12-20T10:41:34;17.83;;;3.72;;
43994;SDS011;51687;52.160;5.298;2023-12-20T10:44:07;15.82;;;3.80;;
43994;SDS011;51687;52.160;5.298;2023-12-20T10:46:36;14.20;;;4.35;;
43994;SDS011;51687;52.160;5.298;2023-12-20T10:49:05;19.25;;;4.93;;
43994;SDS011;51687;52.160;5.298;2023-12-20T10:51:33;14.25;;;4.50;;
43994;SDS011;51687;52.160;5.298;2023-12-20T10:54:01;20.58;;;4.95;;
43994;SDS011;51687;52.160;5.298;2023-12-20T10:56:28;19.42;;;4.72;;
43994;SDS011;51687;52.160;5.298;2023-12-20T10:58:59;23.90;;;4.30;;
43994;SDS011;51687;52.160;5.298;2023-12-20T11:01:30;17.20;;;4.15;;
43994;SDS011;51687;52.160;5.298;2023-12-20T11:03:58;18.02;;;4.05;;
43994;SDS011;51687;52.160;5.298;2023-12-20T11:06:27;17.00;;;4.03;;
43994;SDS011;51687;52.160;5.298;2023-12-20T11:09:28;22.08;;;4.25;;
43994;SDS011;51687;52.160;5.298;2023-12-20T11:12:09;22.13;;;4.13;;
43994;SDS011;51687;52.160;5.298;2023-12-20T11:14:42;24.08;;;4.45;;
43994;SDS011;51687;52.160;5.298;2023-12-20T11:17:13;19.38;;;5.03;;
43994;SDS011;51687;52.160;5.298;2023-12-20T11:22:26;22.45;;;4.38;;
43994;SDS011;51687;52.160;5.298;2023-12-20T11:25:03;20.73;;;3.78;;
43994;SDS011;51687;52.160;5.298;2023-12-20T11:27:32;16.63;;;3.22;;
43994;SDS011;51687;52.160;5.298;2023-12-20T11:29:59;19.42;;;3.92;;
43994;SDS011;51687;52.160;5.298;2023-12-20T11:32:33;20.38;;;4.25;;
43994;SDS011;51687;52.160;5.298;2023-12-20T11:37:37;15.27;;;4.00;;
43994;SDS011;51687;52.160;5.298;2023-12-20T11:40:13;15.90;;;2.90;;
43994;SDS011;51687;52.160;5.298;2023-12-20T11:42:42;19.23;;;3.25;;
43994;SDS011;51687;52.160;5.298;2023-12-20T11:45:11;17.25;;;3.53;;
43994;SDS011;51687;52.160;5.298;2023-12-20T11:47:50;17.95;;;3.92;;
43994;SDS011;51687;52.160;5.298;2023-12-20T11:50:20;16.27;;;3.55;;
43994;SDS011;51687;52.160;5.298;2023-12-20T11:52:48;14.32;;;2.72;;
43994;SDS011;51687;52.160;5.298;2023-12-20T11:55:15;13.93;;;3.00;;
43994;SDS011;51687;52.160;5.298;2023-12-20T11:57:43;21.20;;;4.60;;
43994;SDS011;51687;52.160;5.298;2023-12-20T12:00:12;14.55;;;3.03;;
43994;SDS011;51687;52.160;5.298;2023-12-20T12:02:40;15.73;;;3.53;;
43994;SDS011;51687;52.160;5.298;2023-12-20T12:05:07;13.20;;;3.50;;
43994;SDS011;51687;52.160;5.298;2023-12-20T12:07:34;10.32;;;3.15;;
43994;SDS011;51687;52.160;5.298;2023-12-20T12:10:02;19.15;;;3.75;;
43994;SDS011;51687;52.160;5.298;2023-12-20T12:12:30;20.50;;;3.60;;
43994;SDS011;51687;52.160;5.298;2023-12-20T12:14:57;14.45;;;3.15;;
43994;SDS011;51687;52.160;5.298;2023-12-20T12:17:24;9.52;;;2.50;;
43994;SDS011;51687;52.160;5.298;2023-12-20T12:19:51;17.67;;;4.28;;
43994;SDS011;51687;52.160;5.298;2023-12-20T12:22:32;19.75;;;2.90;;
43994;SDS011;51687;52.160;5.298;2023-12-20T12:24:59;15.95;;;4.22;;
43994;SDS011;51687;52.160;5.298;2023-12-20T12:27:37;17.35;;;3.15;;
43994;SDS011;51687;52.160;5.298;2023-12-20T12:30:06;11.65;;;3.28;;
43994;SDS011;51687;52.160;5.298;2023-12-20T12:32:36;13.10;;;3.22;;
43994;SDS011;51687;52.160;5.298;2023-12-20T12:35:03;16.40;;;3.00;;
43994;SDS011;51687;52.160;5.298;2023-12-20T12:37:36;22.35;;;4.18;;
43994;SDS011;51687;52.160;5.298;2023-12-20T12:40:15;23.83;;;3.95;;
43994;SDS011;51687;52.160;5.298;2023-12-20T12:42:43;14.52;;;3.13;;
43994;SDS011;51687;52.160;5.298;2023-12-20T12:45:11;22.00;;;3.95;;
43994;SDS011;51687;52.160;5.298;2023-12-20T12:47:38;14.35;;;3.72;;
43994;SDS011;51687;52.160;5.298;2023-12-20T12:50:05;18.73;;;3.90;;
43994;SDS011;51687;52.160;5.298;2023-12-20T12:52:33;15.85;;;4.13;;
43994;SDS011;51687;52.160;5.298;2023-12-20T12:55:01;17.88;;;3.47;;
43994;SDS011;51687;52.160;5.298;2023-12-20T12:57:29;13.55;;;3.53;;
43994;SDS011;51687;52.160;5.298;2023-12-20T12:59:56;17.85;;;4.20;;
43994;SDS011;51687;52.160;5.298;2023-12-20T13:02:24;13.57;;;3.37;;
43994;SDS011;51687;52.160;5.298;2023-12-20T13:04:51;16.75;;;3.42;;
43994;SDS011;51687;52.160;5.298;2023-12-20T13:07:18;16.40;;;3.40;;
43994;SDS011;51687;52.160;5.298;2023-12-20T13:09:45;13.23;;;3.42;;
43994;SDS011;51687;52.160;5.298;2023-12-20T13:12:12;17.85;;;3.88;;
43994;SDS011;51687;52.160;5.298;2023-12-20T13:14:39;13.98;;;3.22;;
43994;SDS011;51687;52.160;5.298;2023-12-20T13:17:07;17.90;;;4.05;;
43994;SDS011;51687;52.160;5.298;2023-12-20T13:19:35;15.73;;;3.90;;
43994;SDS011;51687;52.160;5.298;2023-12-20T13:22:02;17.30;;;3.92;;
43994;SDS011;51687;52.160;5.298;2023-12-20T13:24:30;21.55;;;4.70;;
43994;SDS011;51687;52.160;5.298;2023-12-20T13:26:56;21.33;;;4.75;;
43994;SDS011;51687;52.160;5.298;2023-12-20T13:29:24;17.75;;;3.40;;
43994;SDS011;51687;52.160;5.298;2023-12-20T13:31:53;20.38;;;3.72;;
43994;SDS011;51687;52.160;5.298;2023-12-20T13:34:20;15.25;;;2.95;;
43994;SDS011;51687;52.160;5.298;2023-12-20T13:36:47;18.77;;;3.78;;
43994;SDS011;51687;52.160;5.298;2023-12-20T13:39:16;17.00;;;3.58;;
43994;SDS011;51687;52.160;5.298;2023-12-20T13:41:44;15.65;;;3.30;;
43994;SDS011;51687;52.160;5.298;2023-12-20T13:44:11;16.55;;;3.40;;
43994;SDS011;51687;52.160;5.298;2023-12-20T13:46:38;15.30;;;3.03;;
43994;SDS011;51687;52.160;5.298;2023-12-20T13:49:06;9.47;;;2.67;;
43994;SDS011;51687;52.160;5.298;2023-12-20T13:51:33;17.55;;;3.60;;
43994;SDS011;51687;52.160;5.298;2023-12-20T13:54:00;11.32;;;2.75;;
43994;SDS011;51687;52.160;5.298;2023-12-20T13:56:27;18.80;;;3.40;;
43994;SDS011;51687;52.160;5.298;2023-12-20T13:58:54;21.25;;;3.95;;
43994;SDS011;51687;52.160;5.298;2023-12-20T14:01:21;15.77;;;3.30;;
43994;SDS011;51687;52.160;5.298;2023-12-20T14:03:47;15.65;;;3.28;;
43994;SDS011;51687;52.160;5.298;2023-12-20T14:06:14;14.05;;;2.92;;
43994;SDS011;51687;52.160;5.298;2023-12-20T14:08:42;15.50;;;4.57;;
43994;SDS011;51687;52.160;5.298;2023-12-20T14:11:09;16.67;;;3.63;;
43994;SDS011;51687;52.160;5.298;2023-12-20T14:13:36;14.98;;;3.28;;
43994;SDS011;51687;52.160;5.298;2023-12-20T14:16:03;18.52;;;4.10;;
43994;SDS011;51687;52.160;5.298;2023-12-20T14:18:30;12.15;;;3.33;;
43994;SDS011;51687;52.160;5.298;2023-12-20T14:20:57;9.25;;;3.15;;
43994;SDS011;51687;52.160;5.298;2023-12-20T14:23:24;10.98;;;3.47;;
43994;SDS011;51687;52.160;5.298;2023-12-20T14:25:51;13.60;;;3.65;;
43994;SDS011;51687;52.160;5.298;2023-12-20T14:28:19;15.60;;;3.28;;
43994;SDS011;51687;52.160;5.298;2023-12-20T14:30:46;17.45;;;3.25;;
43994;SDS011;51687;52.160;5.298;2023-12-20T14:33:13;22.85;;;3.08;;
43994;SDS011;51687;52.160;5.298;2023-12-20T14:35:40;18.15;;;3.53;;
43994;SDS011;51687;52.160;5.298;2023-12-20T14:38:11;16.25;;;2.97;;
43994;SDS011;51687;52.160;5.298;2023-12-20T14:40:41;16.75;;;2.88;;
43994;SDS011;51687;52.160;5.298;2023-12-20T14:43:07;17.15;;;4.18;;
43994;SDS011;51687;52.160;5.298;2023-12-20T14:45:34;20.70;;;3.42;;
43994;SDS011;51687;52.160;5.298;2023-12-20T14:48:01;18.27;;;3.10;;